Soldier Pond, Maine
Current Conditions -  °F | °C
As of 10:53 AM on Saturday 22 Nov 2014 (Local Time) from KFVE Reporting Station
Overcast Overcast  
Wind Chill:   Ceiling: 5500
Heat Index: 15°   Visibility: 10mi
Dew Point:   Wind: 13mph
Humidity: 77%   Direction: 180°S
Pressure: 29.89"   Gusts: NA
Location:  47.16°N, 68.57°W
Report Text: KFVE 221553Z AUTO 18011KT 10SM FEW031 BKN055 OVC070 M09/M13 A2989 RMK AO2 SNB1454E15 PRESFR SLP141 P0000 T10941128
Loading
Personal Weather Stations






























Interactive Weather Map New forecast layout! Learn more

10-Day Weather Forecast

Advertisements
Track Severe Weather on mobile